sensor_id;sensor_type;location;lat;lon;timestamp;P1;durP1;ratioP1;P2;durP2;ratioP2
74810;SDS011;63340;48.404;-4.506;2023-02-26T00:01:40;2.25;;;1.00;;
74810;SDS011;63340;48.404;-4.506;2023-02-26T00:04:06;1.50;;;1.00;;
74810;SDS011;63340;48.404;-4.506;2023-02-26T00:06:34;1.50;;;0.50;;
74810;SDS011;63340;48.404;-4.506;2023-02-26T00:09:02;2.50;;;1.00;;
74810;SDS011;63340;48.404;-4.506;2023-02-26T00:11:29;1.00;;;1.00;;
74810;SDS011;63340;48.404;-4.506;2023-02-26T00:13:56;1.00;;;1.00;;
74810;SDS011;63340;48.404;-4.506;2023-02-26T00:16:24;2.00;;;1.75;;
74810;SDS011;63340;48.404;-4.506;2023-02-26T00:18:51;1.00;;;1.00;;
74810;SDS011;63340;48.404;-4.506;2023-02-26T00:21:19;1.00;;;1.00;;
74810;SDS011;63340;48.404;-4.506;2023-02-26T00:23:47;0.00;;;0.00;;
74810;SDS011;63340;48.404;-4.506;2023-02-26T00:26:12;1.00;;;1.00;;
74810;SDS011;63340;48.404;-4.506;2023-02-26T00:28:38;0.00;;;0.00;;
74810;SDS011;63340;48.404;-4.506;2023-02-26T00:31:04;1.00;;;1.00;;
74810;SDS011;63340;48.404;-4.506;2023-02-26T00:33:30;1.00;;;1.00;;
74810;SDS011;63340;48.404;-4.506;2023-02-26T00:36:00;2.00;;;0.00;;
74810;SDS011;63340;48.404;-4.506;2023-02-26T00:38:39;0.00;;;0.00;;
74810;SDS011;63340;48.404;-4.506;2023-02-26T00:41:09;1.00;;;0.00;;
74810;SDS011;63340;48.404;-4.506;2023-02-26T00:43:34;0.00;;;0.00;;
74810;SDS011;63340;48.404;-4.506;2023-02-26T00:48:37;0.75;;;0.00;;
74810;SDS011;63340;48.404;-4.506;2023-02-26T00:51:24;0.00;;;0.00;;
74810;SDS011;63340;48.404;-4.506;2023-02-26T00:54:02;0.25;;;0.25;;
74810;SDS011;63340;48.404;-4.506;2023-02-26T00:56:29;0.75;;;0.75;;
74810;SDS011;63340;48.404;-4.506;2023-02-26T00:58:55;0.00;;;0.00;;
74810;SDS011;63340;48.404;-4.506;2023-02-26T01:01:21;0.25;;;0.25;;
74810;SDS011;63340;48.404;-4.506;2023-02-26T01:03:47;0.00;;;0.00;;
74810;SDS011;63340;48.404;-4.506;2023-02-26T01:06:14;1.50;;;1.00;;
74810;SDS011;63340;48.404;-4.506;2023-02-26T01:08:52;0.50;;;0.50;;
74810;SDS011;63340;48.404;-4.506;2023-02-26T01:11:24;2.75;;;1.00;;
74810;SDS011;63340;48.404;-4.506;2023-02-26T01:13:50;1.00;;;0.75;;
74810;SDS011;63340;48.404;-4.506;2023-02-26T01:16:17;1.00;;;1.00;;
74810;SDS011;63340;48.404;-4.506;2023-02-26T01:18:52;1.00;;;1.00;;
74810;SDS011;63340;48.404;-4.506;2023-02-26T01:21:25;0.00;;;0.00;;
74810;SDS011;63340;48.404;-4.506;2023-02-26T01:23:57;0.00;;;0.00;;
74810;SDS011;63340;48.404;-4.506;2023-02-26T01:26:26;0.00;;;0.00;;
74810;SDS011;63340;48.404;-4.506;2023-02-26T01:28:53;1.00;;;0.00;;
74810;SDS011;63340;48.404;-4.506;2023-02-26T01:33:58;1.00;;;0.50;;
74810;SDS011;63340;48.404;-4.506;2023-02-26T01:36:30;1.00;;;0.50;;
74810;SDS011;63340;48.404;-4.506;2023-02-26T01:39:03;0.00;;;0.00;;
74810;SDS011;63340;48.404;-4.506;2023-02-26T01:41:39;0.75;;;0.25;;
74810;SDS011;63340;48.404;-4.506;2023-02-26T01:49:20;1.75;;;1.00;;
74810;SDS011;63340;48.404;-4.506;2023-02-26T01:51:51;1.00;;;1.00;;
74810;SDS011;63340;48.404;-4.506;2023-02-26T01:54:19;1.00;;;1.00;;
74810;SDS011;63340;48.404;-4.506;2023-02-26T01:56:50;1.75;;;1.25;;
74810;SDS011;63340;48.404;-4.506;2023-02-26T01:59:20;1.00;;;1.00;;
74810;SDS011;63340;48.404;-4.506;2023-02-26T02:01:49;1.50;;;0.50;;
74810;SDS011;63340;48.404;-4.506;2023-02-26T02:04:20;1.75;;;1.75;;
74810;SDS011;63340;48.404;-4.506;2023-02-26T02:06:48;1.75;;;1.75;;
74810;SDS011;63340;48.404;-4.506;2023-02-26T02:09:14;1.00;;;1.00;;
74810;SDS011;63340;48.404;-4.506;2023-02-26T02:11:44;1.50;;;0.50;;
74810;SDS011;63340;48.404;-4.506;2023-02-26T02:28:34;1.75;;;1.00;;
74810;SDS011;63340;48.404;-4.506;2023-02-26T02:34:12;0.75;;;0.75;;
74810;SDS011;63340;48.404;-4.506;2023-02-26T02:39:10;1.00;;;1.00;;
74810;SDS011;63340;48.404;-4.506;2023-02-26T02:41:46;1.50;;;1.00;;
74810;SDS011;63340;48.404;-4.506;2023-02-26T02:44:17;0.50;;;0.00;;
74810;SDS011;63340;48.404;-4.506;2023-02-26T02:46:44;0.50;;;0.50;;
74810;SDS011;63340;48.404;-4.506;2023-02-26T02:49:28;0.75;;;0.75;;
74810;SDS011;63340;48.404;-4.506;2023-02-26T02:52:04;1.00;;;1.00;;
74810;SDS011;63340;48.404;-4.506;2023-02-26T02:54:39;1.75;;;1.00;;
74810;SDS011;63340;48.404;-4.506;2023-02-26T02:57:19;0.00;;;0.00;;
74810;SDS011;63340;48.404;-4.506;2023-02-26T02:59:57;0.00;;;0.00;;
74810;SDS011;63340;48.404;-4.506;2023-02-26T03:02:35;0.00;;;0.00;;
74810;SDS011;63340;48.404;-4.506;2023-02-26T03:05:12;3.00;;;1.75;;
74810;SDS011;63340;48.404;-4.506;2023-02-26T03:07:40;1.00;;;1.00;;
74810;SDS011;63340;48.404;-4.506;2023-02-26T03:10:10;0.25;;;0.25;;
74810;SDS011;63340;48.404;-4.506;2023-02-26T03:12:36;2.00;;;0.75;;
74810;SDS011;63340;48.404;-4.506;2023-02-26T03:15:02;2.00;;;0.50;;
74810;SDS011;63340;48.404;-4.506;2023-02-26T03:25:52;1.75;;;0.00;;
74810;SDS011;63340;48.404;-4.506;2023-02-26T03:28:40;1.75;;;0.25;;
74810;SDS011;63340;48.404;-4.506;2023-02-26T03:36:30;0.00;;;0.00;;
74810;SDS011;63340;48.404;-4.506;2023-02-26T03:39:06;1.50;;;0.00;;
74810;SDS011;63340;48.404;-4.506;2023-02-26T03:41:39;0.00;;;0.00;;
74810;SDS011;63340;48.404;-4.506;2023-02-26T03:44:18;1.50;;;1.00;;
74810;SDS011;63340;48.404;-4.506;2023-02-26T03:47:02;0.00;;;0.00;;
74810;SDS011;63340;48.404;-4.506;2023-02-26T03:49:45;1.00;;;0.00;;
74810;SDS011;63340;48.404;-4.506;2023-02-26T03:52:33;0.50;;;0.50;;
74810;SDS011;63340;48.404;-4.506;2023-02-26T03:55:20;1.00;;;0.00;;
74810;SDS011;63340;48.404;-4.506;2023-02-26T03:57:52;1.75;;;1.00;;
74810;SDS011;63340;48.404;-4.506;2023-02-26T04:00:18;0.25;;;0.00;;
74810;SDS011;63340;48.404;-4.506;2023-02-26T04:02:56;0.25;;;0.25;;
74810;SDS011;63340;48.404;-4.506;2023-02-26T04:05:30;0.00;;;0.00;;
74810;SDS011;63340;48.404;-4.506;2023-02-26T04:07:59;0.00;;;0.00;;
74810;SDS011;63340;48.404;-4.506;2023-02-26T04:10:59;0.00;;;0.00;;
74810;SDS011;63340;48.404;-4.506;2023-02-26T04:13:24;0.00;;;0.00;;
74810;SDS011;63340;48.404;-4.506;2023-02-26T04:15:50;0.00;;;0.00;;
74810;SDS011;63340;48.404;-4.506;2023-02-26T04:18:16;1.00;;;0.00;;
74810;SDS011;63340;48.404;-4.506;2023-02-26T04:20:41;0.00;;;0.00;;
74810;SDS011;63340;48.404;-4.506;2023-02-26T04:23:07;1.75;;;1.75;;
74810;SDS011;63340;48.404;-4.506;2023-02-26T04:25:32;0.75;;;0.75;;
74810;SDS011;63340;48.404;-4.506;2023-02-26T04:27:58;0.00;;;0.00;;
74810;SDS011;63340;48.404;-4.506;2023-02-26T04:30:24;0.00;;;0.00;;
74810;SDS011;63340;48.404;-4.506;2023-02-26T04:32:49;1.00;;;1.00;;
74810;SDS011;63340;48.404;-4.506;2023-02-26T04:35:15;0.50;;;0.00;;
74810;SDS011;63340;48.404;-4.506;2023-02-26T04:37:40;0.00;;;0.00;;
74810;SDS011;63340;48.404;-4.506;2023-02-26T04:40:06;1.00;;;1.00;;
74810;SDS011;63340;48.404;-4.506;2023-02-26T04:42:32;1.00;;;0.00;;
74810;SDS011;63340;48.404;-4.506;2023-02-26T04:44:57;0.00;;;0.00;;
74810;SDS011;63340;48.404;-4.506;2023-02-26T04:47:23;0.25;;;0.25;;
74810;SDS011;63340;48.404;-4.506;2023-02-26T04:49:48;0.50;;;0.50;;
74810;SDS011;63340;48.404;-4.506;2023-02-26T04:52:14;0.00;;;0.00;;
74810;SDS011;63340;48.404;-4.506;2023-02-26T04:54:40;0.00;;;0.00;;
74810;SDS011;63340;48.404;-4.506;2023-02-26T04:57:05;0.00;;;0.00;;
74810;SDS011;63340;48.404;-4.506;2023-02-26T04:59:31;0.00;;;0.00;;
74810;SDS011;63340;48.404;-4.506;2023-02-26T05:01:57;0.00;;;0.00;;
74810;SDS011;63340;48.404;-4.506;2023-02-26T05:04:23;0.00;;;0.00;;
74810;SDS011;63340;48.404;-4.506;2023-02-26T05:06:48;1.00;;;0.00;;
74810;SDS011;63340;48.404;-4.506;2023-02-26T05:09:14;0.00;;;0.00;;
74810;SDS011;63340;48.404;-4.506;2023-02-26T05:11:39;1.00;;;1.00;;
74810;SDS011;63340;48.404;-4.506;2023-02-26T05:14:05;1.25;;;1.00;;
74810;SDS011;63340;48.404;-4.506;2023-02-26T05:16:30;2.00;;;1.00;;
74810;SDS011;63340;48.404;-4.506;2023-02-26T05:18:59;1.00;;;0.00;;
74810;SDS011;63340;48.404;-4.506;2023-02-26T05:21:24;1.00;;;0.00;;
74810;SDS011;63340;48.404;-4.506;2023-02-26T05:23:50;0.00;;;0.00;;
74810;SDS011;63340;48.404;-4.506;2023-02-26T05:26:16;0.00;;;0.00;;
74810;SDS011;63340;48.404;-4.506;2023-02-26T05:28:41;0.50;;;0.50;;
74810;SDS011;63340;48.404;-4.506;2023-02-26T05:31:09;1.00;;;0.00;;
74810;SDS011;63340;48.404;-4.506;2023-02-26T05:33:35;1.00;;;1.00;;
74810;SDS011;63340;48.404;-4.506;2023-02-26T05:36:01;0.00;;;0.00;;
74810;SDS011;63340;48.404;-4.506;2023-02-26T05:38:26;0.50;;;0.50;;
74810;SDS011;63340;48.404;-4.506;2023-02-26T05:40:54;0.00;;;0.00;;
74810;SDS011;63340;48.404;-4.506;2023-02-26T05:43:21;0.75;;;0.00;;
74810;SDS011;63340;48.404;-4.506;2023-02-26T05:45:48;0.75;;;0.75;;
74810;SDS011;63340;48.404;-4.506;2023-02-26T05:48:14;0.00;;;0.00;;
74810;SDS011;63340;48.404;-4.506;2023-02-26T05:50:40;0.00;;;0.00;;
74810;SDS011;63340;48.404;-4.506;2023-02-26T05:53:05;1.00;;;0.00;;
74810;SDS011;63340;48.404;-4.506;2023-02-26T05:55:31;0.00;;;0.00;;
74810;SDS011;63340;48.404;-4.506;2023-02-26T05:57:56;0.00;;;0.00;;
74810;SDS011;63340;48.404;-4.506;2023-02-26T06:00:22;0.00;;;0.00;;
74810;SDS011;63340;48.404;-4.506;2023-02-26T06:02:48;1.00;;;0.50;;
74810;SDS011;63340;48.404;-4.506;2023-02-26T06:05:13;0.00;;;0.00;;
74810;SDS011;63340;48.404;-4.506;2023-02-26T06:07:39;0.00;;;0.00;;
74810;SDS011;63340;48.404;-4.506;2023-02-26T06:10:05;2.00;;;0.00;;
74810;SDS011;63340;48.404;-4.506;2023-02-26T06:12:32;0.00;;;0.00;;
74810;SDS011;63340;48.404;-4.506;2023-02-26T06:14:59;0.00;;;0.00;;
74810;SDS011;63340;48.404;-4.506;2023-02-26T06:17:25;1.00;;;0.00;;
74810;SDS011;63340;48.404;-4.506;2023-02-26T06:19:51;0.00;;;0.00;;
74810;SDS011;63340;48.404;-4.506;2023-02-26T06:22:17;0.25;;;0.25;;
74810;SDS011;63340;48.404;-4.506;2023-02-26T06:24:43;1.00;;;1.00;;
74810;SDS011;63340;48.404;-4.506;2023-02-26T06:27:08;1.50;;;1.00;;
74810;SDS011;63340;48.404;-4.506;2023-02-26T06:29:34;0.75;;;0.75;;
74810;SDS011;63340;48.404;-4.506;2023-02-26T06:32:01;0.50;;;0.50;;
74810;SDS011;63340;48.404;-4.506;2023-02-26T06:34:27;2.25;;;1.00;;
74810;SDS011;63340;48.404;-4.506;2023-02-26T06:36:53;1.00;;;1.00;;
74810;SDS011;63340;48.404;-4.506;2023-02-26T06:39:18;1.00;;;0.25;;
74810;SDS011;63340;48.404;-4.506;2023-02-26T06:41:44;1.00;;;1.00;;
74810;SDS011;63340;48.404;-4.506;2023-02-26T06:44:09;0.25;;;0.25;;
74810;SDS011;63340;48.404;-4.506;2023-02-26T06:46:36;1.00;;;1.00;;
74810;SDS011;63340;48.404;-4.506;2023-02-26T06:49:02;1.75;;;0.75;;
74810;SDS011;63340;48.404;-4.506;2023-02-26T06:51:28;1.00;;;1.00;;
74810;SDS011;63340;48.404;-4.506;2023-02-26T06:53:54;2.00;;;2.00;;
74810;SDS011;63340;48.404;-4.506;2023-02-26T06:56:20;0.25;;;0.25;;
74810;SDS011;63340;48.404;-4.506;2023-02-26T06:58:47;1.50;;;1.50;;
74810;SDS011;63340;48.404;-4.506;2023-02-26T07:01:12;1.25;;;1.25;;
74810;SDS011;63340;48.404;-4.506;2023-02-26T07:03:38;2.00;;;2.00;;
74810;SDS011;63340;48.404;-4.506;2023-02-26T07:06:04;2.00;;;1.50;;
74810;SDS011;63340;48.404;-4.506;2023-02-26T07:08:32;2.00;;;2.00;;
74810;SDS011;63340;48.404;-4.506;2023-02-26T07:10:58;2.00;;;2.00;;
74810;SDS011;63340;48.404;-4.506;2023-02-26T07:13:23;2.00;;;2.00;;
74810;SDS011;63340;48.404;-4.506;2023-02-26T07:15:49;4.00;;;3.00;;
74810;SDS011;63340;48.404;-4.506;2023-02-26T07:18:14;1.75;;;1.75;;
74810;SDS011;63340;48.404;-4.506;2023-02-26T07:20:40;1.00;;;1.00;;
74810;SDS011;63340;48.404;-4.506;2023-02-26T07:23:06;2.25;;;2.00;;
74810;SDS011;63340;48.404;-4.506;2023-02-26T07:25:32;2.00;;;2.00;;
74810;SDS011;63340;48.404;-4.506;2023-02-26T07:27:58;2.00;;;2.00;;
74810;SDS011;63340;48.404;-4.506;2023-02-26T07:30:24;1.00;;;1.00;;
74810;SDS011;63340;48.404;-4.506;2023-02-26T07:32:50;2.00;;;0.50;;
74810;SDS011;63340;48.404;-4.506;2023-02-26T07:35:15;1.75;;;1.75;;
74810;SDS011;63340;48.404;-4.506;2023-02-26T07:37:41;2.00;;;2.00;;
74810;SDS011;63340;48.404;-4.506;2023-02-26T07:40:07;1.50;;;1.50;;
74810;SDS011;63340;48.404;-4.506;2023-02-26T07:42:33;3.00;;;1.25;;
74810;SDS011;63340;48.404;-4.506;2023-02-26T07:44:59;0.75;;;0.00;;
74810;SDS011;63340;48.404;-4.506;2023-02-26T07:47:27;1.50;;;1.50;;
74810;SDS011;63340;48.404;-4.506;2023-02-26T07:49:54;2.00;;;1.00;;
74810;SDS011;63340;48.404;-4.506;2023-02-26T07:52:20;3.00;;;2.00;;
74810;SDS011;63340;48.404;-4.506;2023-02-26T07:54:46;1.75;;;1.25;;
74810;SDS011;63340;48.404;-4.506;2023-02-26T07:57:12;2.00;;;2.00;;
74810;SDS011;63340;48.404;-4.506;2023-02-26T07:59:37;1.25;;;1.25;;
74810;SDS011;63340;48.404;-4.506;2023-02-26T08:02:03;1.00;;;1.00;;
74810;SDS011;63340;48.404;-4.506;2023-02-26T08:04:29;1.00;;;1.00;;
74810;SDS011;63340;48.404;-4.506;2023-02-26T08:06:57;1.00;;;1.00;;
74810;SDS011;63340;48.404;-4.506;2023-02-26T08:09:23;2.25;;;1.50;;
74810;SDS011;63340;48.404;-4.506;2023-02-26T08:11:50;2.00;;;2.00;;
74810;SDS011;63340;48.404;-4.506;2023-02-26T08:14:15;2.50;;;2.50;;
74810;SDS011;63340;48.404;-4.506;2023-02-26T08:16:40;3.50;;;2.25;;
74810;SDS011;63340;48.404;-4.506;2023-02-26T08:19:06;2.00;;;2.00;;
74810;SDS011;63340;48.404;-4.506;2023-02-26T08:21:32;1.75;;;1.75;;
74810;SDS011;63340;48.404;-4.506;2023-02-26T08:23:57;1.25;;;1.25;;
74810;SDS011;63340;48.404;-4.506;2023-02-26T08:26:23;1.00;;;1.00;;
74810;SDS011;63340;48.404;-4.506;2023-02-26T08:28:48;2.25;;;1.25;;
74810;SDS011;63340;48.404;-4.506;2023-02-26T08:31:14;2.50;;;1.00;;
74810;SDS011;63340;48.404;-4.506;2023-02-26T08:33:40;2.00;;;2.00;;
74810;SDS011;63340;48.404;-4.506;2023-02-26T08:36:05;4.00;;;2.25;;
74810;SDS011;63340;48.404;-4.506;2023-02-26T08:38:32;2.00;;;2.00;;
74810;SDS011;63340;48.404;-4.506;2023-02-26T08:40:57;1.50;;;1.25;;
74810;SDS011;63340;48.404;-4.506;2023-02-26T08:43:23;1.50;;;1.00;;
74810;SDS011;63340;48.404;-4.506;2023-02-26T08:45:50;2.50;;;2.50;;
74810;SDS011;63340;48.404;-4.506;2023-02-26T08:48:17;2.00;;;2.00;;
74810;SDS011;63340;48.404;-4.506;2023-02-26T08:50:42;1.50;;;1.00;;
74810;SDS011;63340;48.404;-4.506;2023-02-26T08:53:08;2.50;;;2.50;;
74810;SDS011;63340;48.404;-4.506;2023-02-26T08:55:34;3.00;;;2.00;;
74810;SDS011;63340;48.404;-4.506;2023-02-26T08:57:59;4.50;;;1.50;;
74810;SDS011;63340;48.404;-4.506;2023-02-26T09:00:25;1.00;;;1.00;;
74810;SDS011;63340;48.404;-4.506;2023-02-26T09:02:50;1.00;;;1.00;;
74810;SDS011;63340;48.404;-4.506;2023-02-26T09:05:16;2.00;;;1.00;;
74810;SDS011;63340;48.404;-4.506;2023-02-26T09:07:42;0.00;;;0.00;;
74810;SDS011;63340;48.404;-4.506;2023-02-26T09:10:08;1.50;;;1.50;;
74810;SDS011;63340;48.404;-4.506;2023-02-26T09:12:35;2.50;;;2.00;;
74810;SDS011;63340;48.404;-4.506;2023-02-26T09:15:01;0.00;;;0.00;;
74810;SDS011;63340;48.404;-4.506;2023-02-26T09:17:30;2.00;;;2.00;;
74810;SDS011;63340;48.404;-4.506;2023-02-26T09:19:56;2.00;;;2.00;;
74810;SDS011;63340;48.404;-4.506;2023-02-26T09:22:22;2.00;;;1.25;;
74810;SDS011;63340;48.404;-4.506;2023-02-26T09:24:48;1.00;;;1.00;;
74810;SDS011;63340;48.404;-4.506;2023-02-26T09:27:13;1.00;;;0.00;;
74810;SDS011;63340;48.404;-4.506;2023-02-26T09:29:39;1.50;;;1.50;;
74810;SDS011;63340;48.404;-4.506;2023-02-26T09:32:04;3.00;;;1.00;;
74810;SDS011;63340;48.404;-4.506;2023-02-26T09:34:33;3.25;;;2.75;;
74810;SDS011;63340;48.404;-4.506;2023-02-26T09:36:59;1.00;;;1.00;;
74810;SDS011;63340;48.404;-4.506;2023-02-26T09:39:24;1.75;;;1.75;;
74810;SDS011;63340;48.404;-4.506;2023-02-26T09:41:51;2.00;;;2.00;;
74810;SDS011;63340;48.404;-4.506;2023-02-26T09:44:20;2.00;;;2.00;;
74810;SDS011;63340;48.404;-4.506;2023-02-26T09:46:57;4.25;;;3.00;;
74810;SDS011;63340;48.404;-4.506;2023-02-26T09:52:22;1.75;;;1.00;;
74810;SDS011;63340;48.404;-4.506;2023-02-26T09:54:55;1.75;;;1.75;;
74810;SDS011;63340;48.404;-4.506;2023-02-26T09:59:57;3.00;;;2.00;;
74810;SDS011;63340;48.404;-4.506;2023-02-26T10:08:15;2.00;;;2.00;;
74810;SDS011;63340;48.404;-4.506;2023-02-26T10:13:46;2.00;;;2.00;;
74810;SDS011;63340;48.404;-4.506;2023-02-26T10:16:19;1.00;;;1.00;;
74810;SDS011;63340;48.404;-4.506;2023-02-26T10:19:03;1.25;;;1.25;;
74810;SDS011;63340;48.404;-4.506;2023-02-26T10:21:38;2.50;;;1.00;;
74810;SDS011;63340;48.404;-4.506;2023-02-26T10:24:21;2.00;;;2.00;;
74810;SDS011;63340;48.404;-4.506;2023-02-26T10:34:58;1.75;;;1.75;;
74810;SDS011;63340;48.404;-4.506;2023-02-26T10:43:13;1.50;;;1.00;;
74810;SDS011;63340;48.404;-4.506;2023-02-26T10:51:53;2.00;;;1.00;;
74810;SDS011;63340;48.404;-4.506;2023-02-26T10:54:32;2.00;;;2.00;;
74810;SDS011;63340;48.404;-4.506;2023-02-26T10:57:00;2.00;;;2.00;;
74810;SDS011;63340;48.404;-4.506;2023-02-26T10:59:28;3.00;;;1.50;;
74810;SDS011;63340;48.404;-4.506;2023-02-26T11:01:53;1.50;;;1.50;;
74810;SDS011;63340;48.404;-4.506;2023-02-26T11:04:20;2.50;;;2.00;;
74810;SDS011;63340;48.404;-4.506;2023-02-26T11:09:22;2.25;;;2.25;;
74810;SDS011;63340;48.404;-4.506;2023-02-26T11:11:52;3.50;;;3.00;;
74810;SDS011;63340;48.404;-4.506;2023-02-26T11:14:17;3.00;;;3.00;;
74810;SDS011;63340;48.404;-4.506;2023-02-26T11:16:57;3.75;;;2.75;;
74810;SDS011;63340;48.404;-4.506;2023-02-26T11:19:34;2.00;;;2.00;;
74810;SDS011;63340;48.404;-4.506;2023-02-26T11:22:03;3.00;;;2.00;;
74810;SDS011;63340;48.404;-4.506;2023-02-26T11:24:35;2.00;;;2.00;;
74810;SDS011;63340;48.404;-4.506;2023-02-26T11:27:11;4.00;;;3.00;;
74810;SDS011;63340;48.404;-4.506;2023-02-26T11:29:40;2.25;;;2.25;;
74810;SDS011;63340;48.404;-4.506;2023-02-26T11:32:15;4.25;;;3.75;;
74810;SDS011;63340;48.404;-4.506;2023-02-26T11:34:45;2.50;;;2.50;;
74810;SDS011;63340;48.404;-4.506;2023-02-26T11:37:12;3.75;;;2.50;;
74810;SDS011;63340;48.404;-4.506;2023-02-26T11:39:45;3.50;;;1.25;;
74810;SDS011;63340;48.404;-4.506;2023-02-26T11:42:11;3.25;;;3.00;;
74810;SDS011;63340;48.404;-4.506;2023-02-26T11:44:43;3.00;;;3.00;;
74810;SDS011;63340;48.404;-4.506;2023-02-26T11:47:15;2.00;;;2.00;;
74810;SDS011;63340;48.404;-4.506;2023-02-26T11:49:48;4.75;;;2.00;;
74810;SDS011;63340;48.404;-4.506;2023-02-26T11:52:27;4.00;;;2.00;;
74810;SDS011;63340;48.404;-4.506;2023-02-26T11:54:56;4.00;;;3.50;;
74810;SDS011;63340;48.404;-4.506;2023-02-26T11:57:27;2.50;;;2.50;;
74810;SDS011;63340;48.404;-4.506;2023-02-26T11:59:55;3.00;;;3.00;;
74810;SDS011;63340;48.404;-4.506;2023-02-26T12:02:23;2.00;;;2.00;;
74810;SDS011;63340;48.404;-4.506;2023-02-26T12:04:52;2.00;;;2.00;;
74810;SDS011;63340;48.404;-4.506;2023-02-26T12:07:21;3.00;;;2.25;;
74810;SDS011;63340;48.404;-4.506;2023-02-26T12:09:47;2.75;;;2.00;;
74810;SDS011;63340;48.404;-4.506;2023-02-26T12:20:28;6.00;;;4.00;;
74810;SDS011;63340;48.404;-4.506;2023-02-26T12:28:33;2.00;;;2.00;;
74810;SDS011;63340;48.404;-4.506;2023-02-26T12:45:44;1.00;;;1.00;;
74810;SDS011;63340;48.404;-4.506;2023-02-26T13:01:25;1.00;;;1.00;;
74810;SDS011;63340;48.404;-4.506;2023-02-26T13:06:51;3.00;;;2.75;;
74810;SDS011;63340;48.404;-4.506;2023-02-26T13:09:38;2.25;;;1.50;;
74810;SDS011;63340;48.404;-4.506;2023-02-26T13:12:41;2.50;;;2.00;;
74810;SDS011;63340;48.404;-4.506;2023-02-26T13:15:36;1.25;;;1.00;;
74810;SDS011;63340;48.404;-4.506;2023-02-26T13:20:58;2.00;;;2.00;;
74810;SDS011;63340;48.404;-4.506;2023-02-26T13:24:05;1.00;;;1.00;;
74810;SDS011;63340;48.404;-4.506;2023-02-26T13:26:38;2.00;;;2.00;;
74810;SDS011;63340;48.404;-4.506;2023-02-26T13:31:42;1.25;;;1.25;;
74810;SDS011;63340;48.404;-4.506;2023-02-26T13:37:00;3.00;;;1.75;;
74810;SDS011;63340;48.404;-4.506;2023-02-26T13:42:37;1.00;;;1.00;;
74810;SDS011;63340;48.404;-4.506;2023-02-26T13:50:44;1.00;;;1.00;;
74810;SDS011;63340;48.404;-4.506;2023-02-26T13:55:53;1.50;;;1.50;;
74810;SDS011;63340;48.404;-4.506;2023-02-26T14:03:41;2.00;;;1.00;;
74810;SDS011;63340;48.404;-4.506;2023-02-26T14:09:05;1.00;;;1.00;;
74810;SDS011;63340;48.404;-4.506;2023-02-26T14:14:33;1.00;;;1.00;;
74810;SDS011;63340;48.404;-4.506;2023-02-26T14:24:57;0.00;;;0.00;;
74810;SDS011;63340;48.404;-4.506;2023-02-26T14:27:30;0.75;;;0.00;;
74810;SDS011;63340;48.404;-4.506;2023-02-26T14:35:22;0.00;;;0.00;;
74810;SDS011;63340;48.404;-4.506;2023-02-26T14:37:56;1.00;;;0.50;;
74810;SDS011;63340;48.404;-4.506;2023-02-26T14:40:25;0.00;;;0.00;;
74810;SDS011;63340;48.404;-4.506;2023-02-26T14:42:58;0.00;;;0.00;;
74810;SDS011;63340;48.404;-4.506;2023-02-26T14:47:58;0.00;;;0.00;;
74810;SDS011;63340;48.404;-4.506;2023-02-26T14:50:25;1.75;;;0.00;;
74810;SDS011;63340;48.404;-4.506;2023-02-26T14:55:39;1.25;;;1.00;;
74810;SDS011;63340;48.404;-4.506;2023-02-26T15:03:54;0.00;;;0.00;;
74810;SDS011;63340;48.404;-4.506;2023-02-26T15:25:57;1.75;;;1.75;;
74810;SDS011;63340;48.404;-4.506;2023-02-26T15:30:54;1.25;;;1.25;;
74810;SDS011;63340;48.404;-4.506;2023-02-26T15:33:22;2.00;;;1.00;;
74810;SDS011;63340;48.404;-4.506;2023-02-26T15:35:50;2.00;;;1.25;;
74810;SDS011;63340;48.404;-4.506;2023-02-26T15:38:17;1.25;;;0.00;;
74810;SDS011;63340;48.404;-4.506;2023-02-26T15:40:43;1.00;;;1.00;;
74810;SDS011;63340;48.404;-4.506;2023-02-26T15:43:11;1.00;;;0.50;;
74810;SDS011;63340;48.404;-4.506;2023-02-26T15:45:41;1.00;;;1.00;;
74810;SDS011;63340;48.404;-4.506;2023-02-26T15:48:16;0.75;;;0.75;;
74810;SDS011;63340;48.404;-4.506;2023-02-26T15:50:47;2.00;;;2.00;;
74810;SDS011;63340;48.404;-4.506;2023-02-26T15:53:26;2.00;;;2.00;;
74810;SDS011;63340;48.404;-4.506;2023-02-26T15:56:30;0.00;;;0.00;;
74810;SDS011;63340;48.404;-4.506;2023-02-26T16:01:30;1.25;;;1.00;;
74810;SDS011;63340;48.404;-4.506;2023-02-26T16:04:01;2.00;;;1.00;;
74810;SDS011;63340;48.404;-4.506;2023-02-26T16:06:37;1.00;;;1.00;;
74810;SDS011;63340;48.404;-4.506;2023-02-26T16:09:06;1.00;;;1.00;;
74810;SDS011;63340;48.404;-4.506;2023-02-26T16:11:34;0.00;;;0.00;;
74810;SDS011;63340;48.404;-4.506;2023-02-26T16:14:02;1.00;;;1.00;;
74810;SDS011;63340;48.404;-4.506;2023-02-26T16:16:40;1.00;;;0.00;;
74810;SDS011;63340;48.404;-4.506;2023-02-26T16:19:08;0.75;;;0.75;;
74810;SDS011;63340;48.404;-4.506;2023-02-26T16:21:42;0.00;;;0.00;;
74810;SDS011;63340;48.404;-4.506;2023-02-26T16:24:11;0.00;;;0.00;;
74810;SDS011;63340;48.404;-4.506;2023-02-26T16:26:42;2.00;;;0.00;;
74810;SDS011;63340;48.404;-4.506;2023-02-26T16:29:13;0.00;;;0.00;;
74810;SDS011;63340;48.404;-4.506;2023-02-26T16:32:00;0.00;;;0.00;;
74810;SDS011;63340;48.404;-4.506;2023-02-26T16:34:45;0.00;;;0.00;;
74810;SDS011;63340;48.404;-4.506;2023-02-26T16:37:25;0.25;;;0.00;;
74810;SDS011;63340;48.404;-4.506;2023-02-26T16:43:01;1.00;;;1.00;;
74810;SDS011;63340;48.404;-4.506;2023-02-26T16:48:25;0.00;;;0.00;;
74810;SDS011;63340;48.404;-4.506;2023-02-26T16:51:07;2.50;;;0.00;;
74810;SDS011;63340;48.404;-4.506;2023-02-26T16:56:31;1.00;;;1.00;;
74810;SDS011;63340;48.404;-4.506;2023-02-26T16:59:09;0.00;;;0.00;;
74810;SDS011;63340;48.404;-4.506;2023-02-26T17:01:37;1.00;;;1.00;;
74810;SDS011;63340;48.404;-4.506;2023-02-26T17:04:14;1.00;;;1.00;;
74810;SDS011;63340;48.404;-4.506;2023-02-26T17:06:43;0.75;;;0.75;;
74810;SDS011;63340;48.404;-4.506;2023-02-26T17:09:32;1.00;;;1.00;;
74810;SDS011;63340;48.404;-4.506;2023-02-26T17:12:14;0.00;;;0.00;;
74810;SDS011;63340;48.404;-4.506;2023-02-26T17:14:47;2.75;;;0.00;;
74810;SDS011;63340;48.404;-4.506;2023-02-26T17:17:19;2.00;;;2.00;;
74810;SDS011;63340;48.404;-4.506;2023-02-26T17:19:44;0.25;;;0.25;;
74810;SDS011;63340;48.404;-4.506;2023-02-26T17:22:11;2.00;;;1.00;;
74810;SDS011;63340;48.404;-4.506;2023-02-26T17:24:50;0.25;;;0.25;;
74810;SDS011;63340;48.404;-4.506;2023-02-26T17:27:20;1.00;;;1.00;;
74810;SDS011;63340;48.404;-4.506;2023-02-26T17:29:55;1.00;;;0.00;;
74810;SDS011;63340;48.404;-4.506;2023-02-26T17:32:27;2.00;;;1.00;;
74810;SDS011;63340;48.404;-4.506;2023-02-26T17:34:56;2.00;;;1.00;;
74810;SDS011;63340;48.404;-4.506;2023-02-26T17:37:28;0.00;;;0.00;;
74810;SDS011;63340;48.404;-4.506;2023-02-26T17:39:57;1.00;;;1.00;;
74810;SDS011;63340;48.404;-4.506;2023-02-26T17:42:23;2.00;;;1.00;;
74810;SDS011;63340;48.404;-4.506;2023-02-26T17:44:49;0.75;;;0.75;;
74810;SDS011;63340;48.404;-4.506;2023-02-26T17:47:17;0.50;;;0.50;;
74810;SDS011;63340;48.404;-4.506;2023-02-26T17:49:45;1.00;;;0.50;;
74810;SDS011;63340;48.404;-4.506;2023-02-26T17:52:11;0.75;;;0.75;;
74810;SDS011;63340;48.404;-4.506;2023-02-26T17:54:36;1.50;;;1.50;;
74810;SDS011;63340;48.404;-4.506;2023-02-26T17:57:02;0.75;;;0.75;;
74810;SDS011;63340;48.404;-4.506;2023-02-26T17:59:29;2.00;;;1.00;;
74810;SDS011;63340;48.404;-4.506;2023-02-26T18:01:54;2.00;;;1.00;;
74810;SDS011;63340;48.404;-4.506;2023-02-26T18:04:20;2.00;;;1.00;;
74810;SDS011;63340;48.404;-4.506;2023-02-26T18:06:46;2.75;;;1.50;;
74810;SDS011;63340;48.404;-4.506;2023-02-26T18:09:12;2.00;;;1.25;;
74810;SDS011;63340;48.404;-4.506;2023-02-26T18:11:38;2.00;;;2.00;;
74810;SDS011;63340;48.404;-4.506;2023-02-26T18:14:06;2.00;;;2.00;;
74810;SDS011;63340;48.404;-4.506;2023-02-26T18:16:36;3.50;;;2.75;;
74810;SDS011;63340;48.404;-4.506;2023-02-26T18:19:04;2.00;;;1.75;;
74810;SDS011;63340;48.404;-4.506;2023-02-26T18:21:30;2.00;;;1.75;;